Seabulk Arctic — WCY7054 — position and weather

sailwx.info

Track history (hours):
 
Tides and Currents Weather Stations Pressure Air Temp Water Temp Dewpoint Dewpoint Depression Visibility Wind Speed Wind Dir Waves Ship Positions

Seabulk Arctic

Owner: LIGHTSHIP TANKERS IV LLC, FORT LAUDERDALE, FL. More information available from US FCC via Universal Licensing System and Coast Guard Vessel Documentation Center.

Last reported at 2017-Aug-16 11:13 UTC. Time now 2017-Aug-17 15:39 UTC.
Position N 29°37' W 093°16'.

Type: Tanker. MMSI: 366826000.

Date/timePositionNaut miles runAvg speedWind from/ knotsBaromVisibWave heightAir tempDewpointWater temp
2017-Aug-16 11:13N 29°37' W 093°16'  
2017-Aug-13 20:44N 25°16' W 080°05'412.7
2017-Aug-13 20:24N 25°20' W 080°03'812.2
2017-Aug-13 19:47N 25°27' W 080°01'312.1
2017-Aug-13 19:30N 25°30' W 080°00'612.0
2017-Aug-13 19:00N 25°36' W 079°60'612.0
2017-Aug-13 18:30N 25°42' W 079°59'612.0
2017-Aug-13 18:00N 25°48' W 079°59'612.2
2017-Aug-13 17:30N 25°54' W 079°59'612.9
2017-Aug-13 17:00N 26°01' W 079°58'713.1
2017-Aug-13 16:30N 26°07' W 079°58'613.0
2017-Aug-13 16:00N 26°14' W 079°57'713.3
2017-Aug-13 15:30N 26°20' W 079°57'713.0
2017-Aug-13 15:00N 26°27' W 079°56'712.9
2017-Aug-13 14:29N 26°34' W 079°55'1312.6
2017-Aug-13 13:28N 26°47' W 079°55'612.4
2017-Aug-13 13:00N 26°52' W 079°55'612.0
2017-Aug-13 12:30N 26°58' W 079°55'611.9
2017-Aug-13 12:00N 27°04' W 079°55'8 0.2
2017-Aug-11 10:26N 27°11' W 079°50'715.8
2017-Aug-11 10:00N 27°04' W 079°50'917.2
2017-Aug-11 09:30N 26°55' W 079°49'1416.6
2017-Aug-11 08:41N 26°42' W 079°45'416.7
2017-Aug-11 08:26N 26°38' W 079°46'716.5
2017-Aug-11 08:00N 26°31' W 079°46'816.5
2017-Aug-11 07:30N 26°23' W 079°47'816.4
2017-Aug-11 07:00N 26°14' W 079°47'816.3
2017-Aug-11 06:30N 26°06' W 079°48'816.2
2017-Aug-11 06:00N 25°58' W 079°49'816.5
2017-Aug-11 05:30N 25°50' W 079°50'816.3
2017-Aug-11 05:00N 25°42' W 079°52'815.9
2017-Aug-11 04:30N 25°35' W 079°54'815.7
2017-Aug-11 04:00N 25°27' W 079°56'815.5
2017-Aug-11 03:30N 25°19' W 079°58'914.5
2017-Aug-11 02:53N 25°11' W 080°03'  
2017-Aug-08 15:23N 29°37' W 093°49'511.0
2017-Aug-08 14:57N 29°41' W 093°50'5 9.3
2017-Aug-08 14:25N 29°45' W 093°54'  
Track history (hours):
 
Tides and Currents Weather Stations Pressure Air Temp Water Temp Dewpoint Dewpoint Depression Visibility Wind Speed Wind Dir Waves Ship Positions

Seabulk Arctic

Owner: LIGHTSHIP TANKERS IV LLC, FORT LAUDERDALE, FL. More information available from US FCC via Universal Licensing System and Coast Guard Vessel Documentation Center.

Last reported at 2017-Aug-16 11:13 UTC. Time now 2017-Aug-17 15:39 UTC.
Position N 29°37' W 093°16'.

Type: Tanker. MMSI: 366826000.

Date/timePositionNaut miles runAvg speedWind from/ knotsBaromVisibWave heightAir tempDewpointWater temp
2017-Aug-16 11:13N 29°37' W 093°16'  
2017-Aug-13 20:44N 25°16' W 080°05'412.7
2017-Aug-13 20:24N 25°20' W 080°03'812.2
2017-Aug-13 19:47N 25°27' W 080°01'312.1
2017-Aug-13 19:30N 25°30' W 080°00'612.0
2017-Aug-13 19:00N 25°36' W 079°60'612.0
2017-Aug-13 18:30N 25°42' W 079°59'612.0
2017-Aug-13 18:00N 25°48' W 079°59'612.2
2017-Aug-13 17:30N 25°54' W 079°59'612.9
2017-Aug-13 17:00N 26°01' W 079°58'713.1
2017-Aug-13 16:30N 26°07' W 079°58'613.0
2017-Aug-13 16:00N 26°14' W 079°57'713.3
2017-Aug-13 15:30N 26°20' W 079°57'713.0
2017-Aug-13 15:00N 26°27' W 079°56'712.9
2017-Aug-13 14:29N 26°34' W 079°55'1312.6
2017-Aug-13 13:28N 26°47' W 079°55'612.4
2017-Aug-13 13:00N 26°52' W 079°55'612.0
2017-Aug-13 12:30N 26°58' W 079°55'611.9
2017-Aug-13 12:00N 27°04' W 079°55'8 0.2
2017-Aug-11 10:26N 27°11' W 079°50'715.8
2017-Aug-11 10:00N 27°04' W 079°50'917.2
2017-Aug-11 09:30N 26°55' W 079°49'1416.6
2017-Aug-11 08:41N 26°42' W 079°45'416.7
2017-Aug-11 08:26N 26°38' W 079°46'716.5
2017-Aug-11 08:00N 26°31' W 079°46'816.5
2017-Aug-11 07:30N 26°23' W 079°47'816.4
2017-Aug-11 07:00N 26°14' W 079°47'816.3
2017-Aug-11 06:30N 26°06' W 079°48'816.2
2017-Aug-11 06:00N 25°58' W 079°49'816.5
2017-Aug-11 05:30N 25°50' W 079°50'816.3
2017-Aug-11 05:00N 25°42' W 079°52'815.9
2017-Aug-11 04:30N 25°35' W 079°54'815.7
2017-Aug-11 04:00N 25°27' W 079°56'815.5
2017-Aug-11 03:30N 25°19' W 079°58'914.5
2017-Aug-11 02:53N 25°11' W 080°03'  
2017-Aug-08 15:23N 29°37' W 093°49'511.0
2017-Aug-08 14:57N 29°41' W 093°50'5 9.3
2017-Aug-08 14:25N 29°45' W 093°54'  

Dump ship's entire track history